sensor_id;sensor_type;location;lat;lon;timestamp;P1;durP1;ratioP1;P2;durP2;ratioP2
10872;SDS011;34586;53.616;10.032;2024-03-29T00:00:26;2.87;;;1.57;;
10872;SDS011;34586;53.616;10.032;2024-03-29T00:02:51;5.20;;;1.47;;
10872;SDS011;34586;53.616;10.032;2024-03-29T00:05:17;1.47;;;1.30;;
10872;SDS011;34586;53.616;10.032;2024-03-29T00:07:42;2.00;;;1.43;;
10872;SDS011;34586;53.616;10.032;2024-03-29T00:10:09;2.53;;;1.07;;
10872;SDS011;34586;53.616;10.032;2024-03-29T00:12:34;2.37;;;1.17;;
10872;SDS011;34586;53.616;10.032;2024-03-29T00:15:00;1.90;;;1.17;;
10872;SDS011;34586;53.616;10.032;2024-03-29T00:17:25;3.57;;;1.30;;
10872;SDS011;34586;53.616;10.032;2024-03-29T00:19:51;3.20;;;0.93;;
10872;SDS011;34586;53.616;10.032;2024-03-29T00:22:17;2.43;;;0.97;;
10872;SDS011;34586;53.616;10.032;2024-03-29T00:24:42;1.77;;;1.27;;
10872;SDS011;34586;53.616;10.032;2024-03-29T00:27:08;1.43;;;0.90;;
10872;SDS011;34586;53.616;10.032;2024-03-29T00:29:34;1.50;;;0.90;;
10872;SDS011;34586;53.616;10.032;2024-03-29T00:31:59;3.60;;;1.40;;
10872;SDS011;34586;53.616;10.032;2024-03-29T00:34:25;3.23;;;1.27;;
10872;SDS011;34586;53.616;10.032;2024-03-29T00:36:50;2.43;;;1.10;;
10872;SDS011;34586;53.616;10.032;2024-03-29T00:39:17;3.07;;;1.20;;
10872;SDS011;34586;53.616;10.032;2024-03-29T00:41:43;1.13;;;0.87;;
10872;SDS011;34586;53.616;10.032;2024-03-29T00:44:08;2.50;;;1.00;;
10872;SDS011;34586;53.616;10.032;2024-03-29T00:46:34;1.87;;;1.10;;
10872;SDS011;34586;53.616;10.032;2024-03-29T00:49:00;3.93;;;1.03;;
10872;SDS011;34586;53.616;10.032;2024-03-29T00:51:25;1.73;;;0.60;;
10872;SDS011;34586;53.616;10.032;2024-03-29T00:53:51;2.07;;;0.87;;
10872;SDS011;34586;53.616;10.032;2024-03-29T00:56:17;3.00;;;0.80;;
10872;SDS011;34586;53.616;10.032;2024-03-29T00:58:42;2.37;;;0.77;;
10872;SDS011;34586;53.616;10.032;2024-03-29T01:01:08;2.97;;;0.80;;
10872;SDS011;34586;53.616;10.032;2024-03-29T01:03:34;2.97;;;0.97;;
10872;SDS011;34586;53.616;10.032;2024-03-29T01:05:59;0.77;;;0.77;;
10872;SDS011;34586;53.616;10.032;2024-03-29T01:08:25;1.73;;;0.73;;
10872;SDS011;34586;53.616;10.032;2024-03-29T01:10:50;2.93;;;0.60;;
10872;SDS011;34586;53.616;10.032;2024-03-29T01:13:16;2.17;;;1.10;;
10872;SDS011;34586;53.616;10.032;2024-03-29T01:15:41;3.60;;;0.83;;
10872;SDS011;34586;53.616;10.032;2024-03-29T01:18:07;2.77;;;0.80;;
10872;SDS011;34586;53.616;10.032;2024-03-29T01:20:32;2.30;;;0.97;;
10872;SDS011;34586;53.616;10.032;2024-03-29T01:22:59;5.90;;;1.30;;
10872;SDS011;34586;53.616;10.032;2024-03-29T01:25:24;4.53;;;0.90;;
10872;SDS011;34586;53.616;10.032;2024-03-29T01:27:50;3.07;;;1.27;;
10872;SDS011;34586;53.616;10.032;2024-03-29T01:30:15;1.53;;;0.90;;
10872;SDS011;34586;53.616;10.032;2024-03-29T01:32:41;2.13;;;0.80;;
10872;SDS011;34586;53.616;10.032;2024-03-29T01:35:07;3.97;;;0.93;;
10872;SDS011;34586;53.616;10.032;2024-03-29T01:37:32;4.03;;;0.93;;
10872;SDS011;34586;53.616;10.032;2024-03-29T01:39:59;1.47;;;1.07;;
10872;SDS011;34586;53.616;10.032;2024-03-29T01:42:24;2.80;;;0.90;;
10872;SDS011;34586;53.616;10.032;2024-03-29T01:44:50;1.80;;;1.00;;
10872;SDS011;34586;53.616;10.032;2024-03-29T01:47:16;2.37;;;1.40;;
10872;SDS011;34586;53.616;10.032;2024-03-29T01:49:43;1.63;;;0.80;;
10872;SDS011;34586;53.616;10.032;2024-03-29T01:52:10;3.43;;;1.20;;
10872;SDS011;34586;53.616;10.032;2024-03-29T01:54:38;2.53;;;0.97;;
10872;SDS011;34586;53.616;10.032;2024-03-29T01:57:04;3.03;;;1.10;;
10872;SDS011;34586;53.616;10.032;2024-03-29T01:59:30;2.90;;;1.00;;
10872;SDS011;34586;53.616;10.032;2024-03-29T02:01:57;2.67;;;1.00;;
10872;SDS011;34586;53.616;10.032;2024-03-29T02:04:23;2.83;;;1.00;;
10872;SDS011;34586;53.616;10.032;2024-03-29T02:06:49;3.93;;;1.10;;
10872;SDS011;34586;53.616;10.032;2024-03-29T02:09:15;1.73;;;0.83;;
10872;SDS011;34586;53.616;10.032;2024-03-29T02:11:41;3.30;;;1.00;;
10872;SDS011;34586;53.616;10.032;2024-03-29T02:14:06;3.77;;;1.13;;
10872;SDS011;34586;53.616;10.032;2024-03-29T02:16:32;4.20;;;1.50;;
10872;SDS011;34586;53.616;10.032;2024-03-29T02:18:58;2.47;;;0.80;;
10872;SDS011;34586;53.616;10.032;2024-03-29T02:21:23;3.90;;;1.00;;
10872;SDS011;34586;53.616;10.032;2024-03-29T02:23:56;5.03;;;1.30;;
10872;SDS011;34586;53.616;10.032;2024-03-29T02:26:31;3.00;;;0.70;;
10872;SDS011;34586;53.616;10.032;2024-03-29T02:29:01;3.10;;;0.77;;
10872;SDS011;34586;53.616;10.032;2024-03-29T02:31:29;1.90;;;0.60;;
10872;SDS011;34586;53.616;10.032;2024-03-29T02:33:55;1.40;;;0.97;;
10872;SDS011;34586;53.616;10.032;2024-03-29T02:36:21;2.80;;;1.17;;
10872;SDS011;34586;53.616;10.032;2024-03-29T02:38:46;3.73;;;1.00;;
10872;SDS011;34586;53.616;10.032;2024-03-29T02:41:12;3.80;;;0.80;;
10872;SDS011;34586;53.616;10.032;2024-03-29T02:43:37;5.07;;;1.00;;
10872;SDS011;34586;53.616;10.032;2024-03-29T02:46:03;3.90;;;0.80;;
10872;SDS011;34586;53.616;10.032;2024-03-29T02:48:29;2.37;;;0.80;;
10872;SDS011;34586;53.616;10.032;2024-03-29T02:50:54;3.27;;;0.90;;
10872;SDS011;34586;53.616;10.032;2024-03-29T02:53:20;2.20;;;0.80;;
10872;SDS011;34586;53.616;10.032;2024-03-29T02:55:45;2.10;;;0.70;;
10872;SDS011;34586;53.616;10.032;2024-03-29T02:58:11;2.50;;;0.90;;
10872;SDS011;34586;53.616;10.032;2024-03-29T03:00:36;2.27;;;0.67;;
10872;SDS011;34586;53.616;10.032;2024-03-29T03:03:07;1.57;;;0.70;;
10872;SDS011;34586;53.616;10.032;2024-03-29T03:05:41;2.07;;;0.90;;
10872;SDS011;34586;53.616;10.032;2024-03-29T03:08:06;3.70;;;0.87;;
10872;SDS011;34586;53.616;10.032;2024-03-29T03:10:51;4.10;;;0.93;;
10872;SDS011;34586;53.616;10.032;2024-03-29T03:13:27;3.13;;;0.80;;
10872;SDS011;34586;53.616;10.032;2024-03-29T03:15:53;5.70;;;1.03;;
10872;SDS011;34586;53.616;10.032;2024-03-29T03:18:20;3.63;;;1.17;;
10872;SDS011;34586;53.616;10.032;2024-03-29T03:20:52;4.43;;;0.80;;
10872;SDS011;34586;53.616;10.032;2024-03-29T03:23:19;3.50;;;1.00;;
10872;SDS011;34586;53.616;10.032;2024-03-29T03:25:46;1.43;;;0.60;;
10872;SDS011;34586;53.616;10.032;2024-03-29T03:28:19;2.20;;;0.90;;
10872;SDS011;34586;53.616;10.032;2024-03-29T03:30:44;1.77;;;0.97;;
10872;SDS011;34586;53.616;10.032;2024-03-29T03:33:10;3.23;;;1.00;;
10872;SDS011;34586;53.616;10.032;2024-03-29T03:35:35;2.53;;;0.97;;
10872;SDS011;34586;53.616;10.032;2024-03-29T03:38:01;2.53;;;1.50;;
10872;SDS011;34586;53.616;10.032;2024-03-29T03:40:27;5.60;;;1.00;;
10872;SDS011;34586;53.616;10.032;2024-03-29T03:42:52;2.03;;;0.80;;
10872;SDS011;34586;53.616;10.032;2024-03-29T03:45:18;4.60;;;1.23;;
10872;SDS011;34586;53.616;10.032;2024-03-29T03:47:43;4.30;;;0.80;;
10872;SDS011;34586;53.616;10.032;2024-03-29T03:50:09;0.83;;;0.70;;
10872;SDS011;34586;53.616;10.032;2024-03-29T03:52:35;3.13;;;0.90;;
10872;SDS011;34586;53.616;10.032;2024-03-29T03:55:00;2.40;;;0.80;;
10872;SDS011;34586;53.616;10.032;2024-03-29T03:57:26;1.17;;;0.63;;
10872;SDS011;34586;53.616;10.032;2024-03-29T03:59:51;1.67;;;0.50;;
10872;SDS011;34586;53.616;10.032;2024-03-29T04:02:17;5.33;;;1.23;;
10872;SDS011;34586;53.616;10.032;2024-03-29T04:04:43;2.13;;;0.70;;
10872;SDS011;34586;53.616;10.032;2024-03-29T04:07:12;2.63;;;0.83;;
10872;SDS011;34586;53.616;10.032;2024-03-29T04:09:38;4.83;;;0.63;;
10872;SDS011;34586;53.616;10.032;2024-03-29T04:12:03;4.03;;;0.80;;
10872;SDS011;34586;53.616;10.032;2024-03-29T04:14:29;3.90;;;0.80;;
10872;SDS011;34586;53.616;10.032;2024-03-29T04:16:55;2.27;;;0.40;;
10872;SDS011;34586;53.616;10.032;2024-03-29T04:19:20;2.17;;;0.60;;
10872;SDS011;34586;53.616;10.032;2024-03-29T04:21:46;3.37;;;0.90;;
10872;SDS011;34586;53.616;10.032;2024-03-29T04:24:11;4.50;;;0.90;;
10872;SDS011;34586;53.616;10.032;2024-03-29T04:26:37;5.27;;;0.90;;
10872;SDS011;34586;53.616;10.032;2024-03-29T04:29:03;2.90;;;0.70;;
10872;SDS011;34586;53.616;10.032;2024-03-29T04:31:29;1.67;;;0.63;;
10872;SDS011;34586;53.616;10.032;2024-03-29T04:33:54;2.47;;;0.70;;
10872;SDS011;34586;53.616;10.032;2024-03-29T04:36:20;1.50;;;0.60;;
10872;SDS011;34586;53.616;10.032;2024-03-29T04:38:46;2.90;;;0.80;;
10872;SDS011;34586;53.616;10.032;2024-03-29T04:41:12;4.17;;;1.10;;
10872;SDS011;34586;53.616;10.032;2024-03-29T04:43:38;3.80;;;0.90;;
10872;SDS011;34586;53.616;10.032;2024-03-29T04:46:09;3.20;;;0.90;;
10872;SDS011;34586;53.616;10.032;2024-03-29T04:48:36;2.30;;;0.90;;
10872;SDS011;34586;53.616;10.032;2024-03-29T04:51:10;2.03;;;0.57;;
10872;SDS011;34586;53.616;10.032;2024-03-29T04:53:36;1.50;;;0.63;;
10872;SDS011;34586;53.616;10.032;2024-03-29T04:56:03;1.83;;;0.73;;
10872;SDS011;34586;53.616;10.032;2024-03-29T04:58:29;2.73;;;1.27;;
10872;SDS011;34586;53.616;10.032;2024-03-29T05:00:55;2.27;;;0.70;;
10872;SDS011;34586;53.616;10.032;2024-03-29T05:03:21;3.70;;;1.10;;
10872;SDS011;34586;53.616;10.032;2024-03-29T05:05:47;2.27;;;0.70;;
10872;SDS011;34586;53.616;10.032;2024-03-29T05:08:15;1.87;;;0.80;;
10872;SDS011;34586;53.616;10.032;2024-03-29T05:10:41;3.23;;;0.70;;
10872;SDS011;34586;53.616;10.032;2024-03-29T05:13:07;2.80;;;0.60;;
10872;SDS011;34586;53.616;10.032;2024-03-29T05:15:32;2.53;;;0.53;;
10872;SDS011;34586;53.616;10.032;2024-03-29T05:17:58;4.17;;;0.77;;
10872;SDS011;34586;53.616;10.032;2024-03-29T05:20:24;2.03;;;0.50;;
10872;SDS011;34586;53.616;10.032;2024-03-29T05:22:50;2.73;;;0.93;;
10872;SDS011;34586;53.616;10.032;2024-03-29T05:25:15;2.30;;;0.57;;
10872;SDS011;34586;53.616;10.032;2024-03-29T05:27:41;2.73;;;0.70;;
10872;SDS011;34586;53.616;10.032;2024-03-29T05:30:07;5.13;;;0.97;;
10872;SDS011;34586;53.616;10.032;2024-03-29T05:32:34;3.37;;;0.53;;
10872;SDS011;34586;53.616;10.032;2024-03-29T05:35:00;2.93;;;1.00;;
10872;SDS011;34586;53.616;10.032;2024-03-29T05:37:26;1.33;;;0.70;;
10872;SDS011;34586;53.616;10.032;2024-03-29T05:39:52;4.33;;;0.73;;
10872;SDS011;34586;53.616;10.032;2024-03-29T05:42:27;4.80;;;0.80;;
10872;SDS011;34586;53.616;10.032;2024-03-29T05:44:54;1.73;;;0.70;;
10872;SDS011;34586;53.616;10.032;2024-03-29T05:47:20;1.17;;;0.80;;
10872;SDS011;34586;53.616;10.032;2024-03-29T05:49:45;1.10;;;0.60;;
10872;SDS011;34586;53.616;10.032;2024-03-29T05:52:11;2.13;;;0.60;;
10872;SDS011;34586;53.616;10.032;2024-03-29T05:54:40;2.83;;;0.73;;
10872;SDS011;34586;53.616;10.032;2024-03-29T05:57:07;2.20;;;0.70;;
10872;SDS011;34586;53.616;10.032;2024-03-29T05:59:33;2.07;;;0.80;;
10872;SDS011;34586;53.616;10.032;2024-03-29T06:01:59;2.33;;;0.73;;
10872;SDS011;34586;53.616;10.032;2024-03-29T06:04:26;1.80;;;0.50;;
10872;SDS011;34586;53.616;10.032;2024-03-29T06:07:00;2.77;;;0.73;;
10872;SDS011;34586;53.616;10.032;2024-03-29T06:09:27;1.87;;;0.80;;
10872;SDS011;34586;53.616;10.032;2024-03-29T06:11:56;2.93;;;0.93;;
10872;SDS011;34586;53.616;10.032;2024-03-29T06:14:22;1.03;;;0.57;;
10872;SDS011;34586;53.616;10.032;2024-03-29T06:17:07;2.17;;;0.40;;
10872;SDS011;34586;53.616;10.032;2024-03-29T06:19:49;3.50;;;0.70;;
10872;SDS011;34586;53.616;10.032;2024-03-29T06:22:15;3.13;;;0.80;;
10872;SDS011;34586;53.616;10.032;2024-03-29T06:24:42;2.60;;;0.90;;
10872;SDS011;34586;53.616;10.032;2024-03-29T06:27:09;3.27;;;0.90;;
10872;SDS011;34586;53.616;10.032;2024-03-29T06:29:35;1.80;;;0.60;;
10872;SDS011;34586;53.616;10.032;2024-03-29T06:32:00;1.50;;;0.60;;
10872;SDS011;34586;53.616;10.032;2024-03-29T06:34:28;1.80;;;0.63;;
10872;SDS011;34586;53.616;10.032;2024-03-29T06:36:56;1.47;;;0.60;;
10872;SDS011;34586;53.616;10.032;2024-03-29T06:39:22;0.90;;;0.77;;
10872;SDS011;34586;53.616;10.032;2024-03-29T06:41:47;2.07;;;0.70;;
10872;SDS011;34586;53.616;10.032;2024-03-29T06:44:13;2.43;;;0.70;;
10872;SDS011;34586;53.616;10.032;2024-03-29T06:46:38;1.30;;;0.70;;
10872;SDS011;34586;53.616;10.032;2024-03-29T06:49:04;3.33;;;0.70;;
10872;SDS011;34586;53.616;10.032;2024-03-29T06:51:30;2.40;;;0.77;;
10872;SDS011;34586;53.616;10.032;2024-03-29T06:53:56;1.17;;;0.60;;
10872;SDS011;34586;53.616;10.032;2024-03-29T06:56:21;1.70;;;0.80;;
10872;SDS011;34586;53.616;10.032;2024-03-29T06:58:47;0.97;;;0.63;;
10872;SDS011;34586;53.616;10.032;2024-03-29T07:01:12;1.17;;;0.80;;
10872;SDS011;34586;53.616;10.032;2024-03-29T07:03:39;1.17;;;0.70;;
10872;SDS011;34586;53.616;10.032;2024-03-29T07:06:05;1.67;;;0.80;;
10872;SDS011;34586;53.616;10.032;2024-03-29T07:08:31;3.13;;;0.80;;
10872;SDS011;34586;53.616;10.032;2024-03-29T07:10:57;2.23;;;0.90;;
10872;SDS011;34586;53.616;10.032;2024-03-29T07:13:29;1.63;;;0.83;;
10872;SDS011;34586;53.616;10.032;2024-03-29T07:15:59;0.93;;;0.57;;
10872;SDS011;34586;53.616;10.032;2024-03-29T07:18:24;3.13;;;0.80;;
10872;SDS011;34586;53.616;10.032;2024-03-29T07:20:50;2.13;;;0.80;;
10872;SDS011;34586;53.616;10.032;2024-03-29T07:23:16;2.43;;;0.90;;
10872;SDS011;34586;53.616;10.032;2024-03-29T07:25:44;2.70;;;0.90;;
10872;SDS011;34586;53.616;10.032;2024-03-29T07:28:14;2.80;;;0.93;;
10872;SDS011;34586;53.616;10.032;2024-03-29T07:30:40;2.70;;;0.83;;
10872;SDS011;34586;53.616;10.032;2024-03-29T07:33:06;6.10;;;0.93;;
10872;SDS011;34586;53.616;10.032;2024-03-29T07:35:34;1.83;;;0.60;;
10872;SDS011;34586;53.616;10.032;2024-03-29T07:37:59;0.67;;;0.50;;
10872;SDS011;34586;53.616;10.032;2024-03-29T07:40:25;1.63;;;0.60;;
10872;SDS011;34586;53.616;10.032;2024-03-29T07:42:50;1.33;;;0.60;;
10872;SDS011;34586;53.616;10.032;2024-03-29T07:45:16;1.20;;;0.50;;
10872;SDS011;34586;53.616;10.032;2024-03-29T07:47:41;1.97;;;0.60;;
10872;SDS011;34586;53.616;10.032;2024-03-29T07:50:07;3.10;;;0.70;;
10872;SDS011;34586;53.616;10.032;2024-03-29T07:52:34;0.93;;;0.60;;
10872;SDS011;34586;53.616;10.032;2024-03-29T07:55:00;2.70;;;0.67;;
10872;SDS011;34586;53.616;10.032;2024-03-29T07:57:26;3.60;;;0.90;;
10872;SDS011;34586;53.616;10.032;2024-03-29T07:59:51;2.23;;;0.60;;
10872;SDS011;34586;53.616;10.032;2024-03-29T08:02:17;1.60;;;0.70;;
10872;SDS011;34586;53.616;10.032;2024-03-29T08:04:43;2.50;;;0.77;;
10872;SDS011;34586;53.616;10.032;2024-03-29T08:07:09;2.23;;;0.60;;
10872;SDS011;34586;53.616;10.032;2024-03-29T08:09:36;1.13;;;0.50;;
10872;SDS011;34586;53.616;10.032;2024-03-29T08:12:04;2.63;;;1.00;;
10872;SDS011;34586;53.616;10.032;2024-03-29T08:14:30;2.93;;;0.80;;
10872;SDS011;34586;53.616;10.032;2024-03-29T08:16:55;1.77;;;0.67;;
10872;SDS011;34586;53.616;10.032;2024-03-29T08:19:21;2.10;;;0.57;;
10872;SDS011;34586;53.616;10.032;2024-03-29T08:21:47;0.60;;;0.50;;
10872;SDS011;34586;53.616;10.032;2024-03-29T08:24:12;2.70;;;0.60;;
10872;SDS011;34586;53.616;10.032;2024-03-29T08:26:38;2.10;;;0.73;;
10872;SDS011;34586;53.616;10.032;2024-03-29T08:29:04;0.60;;;0.50;;
10872;SDS011;34586;53.616;10.032;2024-03-29T08:31:30;0.70;;;0.30;;
10872;SDS011;34586;53.616;10.032;2024-03-29T08:33:55;1.83;;;0.50;;
10872;SDS011;34586;53.616;10.032;2024-03-29T08:36:21;2.20;;;0.50;;
10872;SDS011;34586;53.616;10.032;2024-03-29T08:38:47;2.10;;;0.50;;
10872;SDS011;34586;53.616;10.032;2024-03-29T08:41:12;2.70;;;0.50;;
10872;SDS011;34586;53.616;10.032;2024-03-29T08:43:38;1.10;;;0.53;;
10872;SDS011;34586;53.616;10.032;2024-03-29T08:46:03;1.63;;;0.40;;
10872;SDS011;34586;53.616;10.032;2024-03-29T08:48:29;1.73;;;0.47;;
10872;SDS011;34586;53.616;10.032;2024-03-29T08:50:55;0.90;;;0.40;;
10872;SDS011;34586;53.616;10.032;2024-03-29T08:53:21;2.60;;;0.63;;
10872;SDS011;34586;53.616;10.032;2024-03-29T08:55:47;1.23;;;0.57;;
10872;SDS011;34586;53.616;10.032;2024-03-29T08:58:15;1.90;;;0.70;;
10872;SDS011;34586;53.616;10.032;2024-03-29T09:00:41;2.27;;;0.67;;
10872;SDS011;34586;53.616;10.032;2024-03-29T09:03:06;1.20;;;0.67;;
10872;SDS011;34586;53.616;10.032;2024-03-29T09:05:32;2.43;;;0.77;;
10872;SDS011;34586;53.616;10.032;2024-03-29T09:07:58;3.80;;;0.80;;
10872;SDS011;34586;53.616;10.032;2024-03-29T09:10:23;3.63;;;0.67;;
10872;SDS011;34586;53.616;10.032;2024-03-29T09:12:51;1.03;;;0.37;;
10872;SDS011;34586;53.616;10.032;2024-03-29T09:15:17;1.80;;;0.43;;
10872;SDS011;34586;53.616;10.032;2024-03-29T09:17:43;0.60;;;0.40;;
10872;SDS011;34586;53.616;10.032;2024-03-29T09:20:10;1.40;;;0.40;;
10872;SDS011;34586;53.616;10.032;2024-03-29T09:22:36;2.37;;;0.67;;
10872;SDS011;34586;53.616;10.032;2024-03-29T09:25:03;2.43;;;0.60;;
10872;SDS011;34586;53.616;10.032;2024-03-29T09:27:29;1.73;;;0.63;;
10872;SDS011;34586;53.616;10.032;2024-03-29T09:29:55;2.53;;;0.50;;
10872;SDS011;34586;53.616;10.032;2024-03-29T09:32:23;0.50;;;0.50;;
10872;SDS011;34586;53.616;10.032;2024-03-29T09:34:49;3.33;;;0.50;;
10872;SDS011;34586;53.616;10.032;2024-03-29T09:37:15;1.00;;;0.60;;
10872;SDS011;34586;53.616;10.032;2024-03-29T09:39:40;1.40;;;0.40;;
10872;SDS011;34586;53.616;10.032;2024-03-29T09:42:06;1.87;;;0.70;;
10872;SDS011;34586;53.616;10.032;2024-03-29T09:44:34;3.97;;;0.70;;
10872;SDS011;34586;53.616;10.032;2024-03-29T09:47:02;1.30;;;0.60;;
10872;SDS011;34586;53.616;10.032;2024-03-29T09:49:29;1.10;;;0.60;;
10872;SDS011;34586;53.616;10.032;2024-03-29T09:52:00;2.50;;;0.60;;
10872;SDS011;34586;53.616;10.032;2024-03-29T09:54:29;2.90;;;0.73;;
10872;SDS011;34586;53.616;10.032;2024-03-29T09:56:59;1.00;;;0.90;;
10872;SDS011;34586;53.616;10.032;2024-03-29T09:59:25;2.47;;;0.63;;
10872;SDS011;34586;53.616;10.032;2024-03-29T10:01:51;1.60;;;0.53;;
10872;SDS011;34586;53.616;10.032;2024-03-29T10:04:20;1.13;;;0.40;;
10872;SDS011;34586;53.616;10.032;2024-03-29T10:06:47;1.67;;;0.60;;
10872;SDS011;34586;53.616;10.032;2024-03-29T10:09:17;1.17;;;0.50;;
10872;SDS011;34586;53.616;10.032;2024-03-29T10:11:43;1.40;;;0.60;;
10872;SDS011;34586;53.616;10.032;2024-03-29T10:14:10;2.87;;;0.60;;
10872;SDS011;34586;53.616;10.032;2024-03-29T10:16:35;0.87;;;0.60;;
10872;SDS011;34586;53.616;10.032;2024-03-29T10:19:01;1.43;;;0.70;;
10872;SDS011;34586;53.616;10.032;2024-03-29T10:21:27;1.83;;;0.70;;
10872;SDS011;34586;53.616;10.032;2024-03-29T10:23:53;1.43;;;0.60;;
10872;SDS011;34586;53.616;10.032;2024-03-29T10:26:19;1.90;;;0.43;;
10872;SDS011;34586;53.616;10.032;2024-03-29T10:28:45;2.80;;;0.60;;
10872;SDS011;34586;53.616;10.032;2024-03-29T10:31:11;0.93;;;0.50;;
10872;SDS011;34586;53.616;10.032;2024-03-29T10:33:39;1.63;;;0.50;;
10872;SDS011;34586;53.616;10.032;2024-03-29T10:36:07;1.37;;;0.70;;
10872;SDS011;34586;53.616;10.032;2024-03-29T10:38:34;2.40;;;0.77;;
10872;SDS011;34586;53.616;10.032;2024-03-29T10:41:01;2.87;;;0.80;;
10872;SDS011;34586;53.616;10.032;2024-03-29T10:43:28;2.80;;;1.30;;
10872;SDS011;34586;53.616;10.032;2024-03-29T10:45:54;4.13;;;1.70;;
10872;SDS011;34586;53.616;10.032;2024-03-29T10:48:25;2.23;;;0.90;;
10872;SDS011;34586;53.616;10.032;2024-03-29T10:50:54;1.87;;;0.80;;
10872;SDS011;34586;53.616;10.032;2024-03-29T10:53:26;1.00;;;0.53;;
10872;SDS011;34586;53.616;10.032;2024-03-29T10:55:58;1.63;;;0.70;;
10872;SDS011;34586;53.616;10.032;2024-03-29T10:58:25;3.30;;;0.80;;
10872;SDS011;34586;53.616;10.032;2024-03-29T11:00:59;3.30;;;1.03;;
10872;SDS011;34586;53.616;10.032;2024-03-29T11:03:32;2.43;;;0.77;;
10872;SDS011;34586;53.616;10.032;2024-03-29T11:06:08;1.33;;;0.57;;
10872;SDS011;34586;53.616;10.032;2024-03-29T11:08:38;1.90;;;0.80;;
10872;SDS011;34586;53.616;10.032;2024-03-29T11:11:10;1.17;;;0.60;;
10872;SDS011;34586;53.616;10.032;2024-03-29T11:16:25;1.50;;;0.67;;
10872;SDS011;34586;53.616;10.032;2024-03-29T11:18:51;1.97;;;0.70;;
10872;SDS011;34586;53.616;10.032;2024-03-29T11:21:17;1.43;;;0.53;;
10872;SDS011;34586;53.616;10.032;2024-03-29T11:23:52;2.43;;;0.63;;
10872;SDS011;34586;53.616;10.032;2024-03-29T11:26:19;1.53;;;0.67;;
10872;SDS011;34586;53.616;10.032;2024-03-29T11:28:48;1.67;;;0.70;;
10872;SDS011;34586;53.616;10.032;2024-03-29T11:31:15;1.80;;;0.80;;
10872;SDS011;34586;53.616;10.032;2024-03-29T11:36:11;1.97;;;0.70;;
10872;SDS011;34586;53.616;10.032;2024-03-29T11:38:38;1.67;;;0.60;;
10872;SDS011;34586;53.616;10.032;2024-03-29T11:43:31;1.83;;;0.80;;
10872;SDS011;34586;53.616;10.032;2024-03-29T11:46:01;1.33;;;0.93;;
10872;SDS011;34586;53.616;10.032;2024-03-29T11:48:28;1.10;;;1.00;;
10872;SDS011;34586;53.616;10.032;2024-03-29T11:50:56;2.50;;;1.40;;
10872;SDS011;34586;53.616;10.032;2024-03-29T11:53:22;2.03;;;1.33;;
10872;SDS011;34586;53.616;10.032;2024-03-29T11:55:48;3.67;;;1.57;;
10872;SDS011;34586;53.616;10.032;2024-03-29T11:58:18;1.70;;;1.30;;
10872;SDS011;34586;53.616;10.032;2024-03-29T12:00:53;2.30;;;1.30;;
10872;SDS011;34586;53.616;10.032;2024-03-29T12:03:20;2.00;;;0.97;;
10872;SDS011;34586;53.616;10.032;2024-03-29T12:05:48;1.10;;;0.70;;
10872;SDS011;34586;53.616;10.032;2024-03-29T12:08:23;2.30;;;0.63;;
10872;SDS011;34586;53.616;10.032;2024-03-29T12:10:49;1.30;;;0.67;;
10872;SDS011;34586;53.616;10.032;2024-03-29T12:13:16;1.37;;;0.60;;
10872;SDS011;34586;53.616;10.032;2024-03-29T12:15:42;2.13;;;0.60;;
10872;SDS011;34586;53.616;10.032;2024-03-29T12:18:09;1.47;;;0.90;;
10872;SDS011;34586;53.616;10.032;2024-03-29T12:20:35;2.03;;;0.70;;
10872;SDS011;34586;53.616;10.032;2024-03-29T12:23:07;2.50;;;0.60;;
10872;SDS011;34586;53.616;10.032;2024-03-29T12:25:35;2.10;;;0.60;;
10872;SDS011;34586;53.616;10.032;2024-03-29T12:28:01;2.30;;;0.60;;
10872;SDS011;34586;53.616;10.032;2024-03-29T12:30:28;0.80;;;0.60;;
10872;SDS011;34586;53.616;10.032;2024-03-29T12:33:00;1.27;;;0.57;;
10872;SDS011;34586;53.616;10.032;2024-03-29T12:35:34;1.10;;;0.73;;
10872;SDS011;34586;53.616;10.032;2024-03-29T12:38:00;1.57;;;0.53;;
10872;SDS011;34586;53.616;10.032;2024-03-29T12:40:28;1.47;;;0.80;;
10872;SDS011;34586;53.616;10.032;2024-03-29T12:42:57;1.80;;;0.60;;
10872;SDS011;34586;53.616;10.032;2024-03-29T12:45:23;2.60;;;0.67;;
10872;SDS011;34586;53.616;10.032;2024-03-29T12:47:50;1.47;;;0.60;;
10872;SDS011;34586;53.616;10.032;2024-03-29T12:50:19;2.40;;;0.60;;
10872;SDS011;34586;53.616;10.032;2024-03-29T12:52:55;2.20;;;0.70;;
10872;SDS011;34586;53.616;10.032;2024-03-29T12:55:25;2.53;;;0.60;;
10872;SDS011;34586;53.616;10.032;2024-03-29T12:57:55;1.10;;;0.60;;
10872;SDS011;34586;53.616;10.032;2024-03-29T13:00:21;0.83;;;0.60;;
10872;SDS011;34586;53.616;10.032;2024-03-29T13:02:47;3.00;;;0.70;;
10872;SDS011;34586;53.616;10.032;2024-03-29T13:05:13;0.70;;;0.60;;
10872;SDS011;34586;53.616;10.032;2024-03-29T13:07:39;0.77;;;0.60;;
10872;SDS011;34586;53.616;10.032;2024-03-29T13:10:05;1.10;;;0.60;;
10872;SDS011;34586;53.616;10.032;2024-03-29T13:12:38;1.37;;;0.63;;
10872;SDS011;34586;53.616;10.032;2024-03-29T13:15:31;1.23;;;0.63;;
10872;SDS011;34586;53.616;10.032;2024-03-29T13:17:58;0.90;;;0.60;;
10872;SDS011;34586;53.616;10.032;2024-03-29T13:20:25;1.47;;;0.70;;
10872;SDS011;34586;53.616;10.032;2024-03-29T13:22:50;1.47;;;0.60;;
10872;SDS011;34586;53.616;10.032;2024-03-29T13:25:17;2.60;;;0.80;;
10872;SDS011;34586;53.616;10.032;2024-03-29T13:27:44;2.03;;;0.50;;
10872;SDS011;34586;53.616;10.032;2024-03-29T13:30:12;1.47;;;0.60;;
10872;SDS011;34586;53.616;10.032;2024-03-29T13:32:41;0.70;;;0.57;;
10872;SDS011;34586;53.616;10.032;2024-03-29T13:35:09;0.70;;;0.50;;
10872;SDS011;34586;53.616;10.032;2024-03-29T13:37:38;3.30;;;0.60;;
10872;SDS011;34586;53.616;10.032;2024-03-29T13:40:07;0.63;;;0.50;;
10872;SDS011;34586;53.616;10.032;2024-03-29T13:42:33;1.30;;;0.60;;
10872;SDS011;34586;53.616;10.032;2024-03-29T13:44:59;1.87;;;0.50;;
10872;SDS011;34586;53.616;10.032;2024-03-29T13:47:25;1.27;;;0.60;;
10872;SDS011;34586;53.616;10.032;2024-03-29T13:49:51;2.57;;;0.57;;
10872;SDS011;34586;53.616;10.032;2024-03-29T13:52:18;2.23;;;0.77;;
10872;SDS011;34586;53.616;10.032;2024-03-29T13:54:45;1.40;;;0.60;;
10872;SDS011;34586;53.616;10.032;2024-03-29T13:57:13;1.77;;;0.60;;
10872;SDS011;34586;53.616;10.032;2024-03-29T13:59:39;0.73;;;0.47;;
10872;SDS011;34586;53.616;10.032;2024-03-29T14:02:08;0.90;;;0.50;;
10872;SDS011;34586;53.616;10.032;2024-03-29T14:04:35;2.43;;;0.60;;
10872;SDS011;34586;53.616;10.032;2024-03-29T14:07:00;1.23;;;0.47;;
10872;SDS011;34586;53.616;10.032;2024-03-29T14:09:28;0.50;;;0.50;;
10872;SDS011;34586;53.616;10.032;2024-03-29T14:11:54;1.43;;;0.43;;
10872;SDS011;34586;53.616;10.032;2024-03-29T14:14:19;0.60;;;0.50;;
10872;SDS011;34586;53.616;10.032;2024-03-29T14:16:45;0.50;;;0.47;;
10872;SDS011;34586;53.616;10.032;2024-03-29T14:19:10;0.83;;;0.47;;
10872;SDS011;34586;53.616;10.032;2024-03-29T14:21:36;0.70;;;0.70;;
10872;SDS011;34586;53.616;10.032;2024-03-29T14:24:02;2.63;;;0.53;;
10872;SDS011;34586;53.616;10.032;2024-03-29T14:26:27;0.70;;;0.60;;
10872;SDS011;34586;53.616;10.032;2024-03-29T14:28:53;1.30;;;0.80;;
10872;SDS011;34586;53.616;10.032;2024-03-29T14:31:18;2.17;;;0.60;;
10872;SDS011;34586;53.616;10.032;2024-03-29T14:33:45;1.17;;;0.47;;
10872;SDS011;34586;53.616;10.032;2024-03-29T14:36:11;1.00;;;0.70;;
10872;SDS011;34586;53.616;10.032;2024-03-29T14:38:37;1.63;;;0.57;;